Time;durP1;ratioP1;P1;durP2;ratioP2;P2;SDS_P1;SDS_P2;PMS_P1;PMS_P2;Temp;Humidity;BMP_temperature;BMP_pressure;BME280_temperature;BME280_humidity;BME280_pressure;Samples;Min_cycle;Max_cycle;Signal;HPM_P1;HPM_P2
2021/09/12 00:00:28;;;;;;;8.52;4.55;;;;;;;18.88;37.62;99461.81;5094112;28;20016;-76
2021/09/12 00:02:54;;;;;;;6.95;5.32;;;;;;;18.95;37.60;99473.22;5093737;28;20016;-74
2021/09/12 00:05:20;;;;;;;9.02;4.55;;;;;;;18.78;37.70;99445.56;5093719;28;20439;-75
2021/09/12 00:07:45;;;;;;;7.15;4.75;;;;;;;18.43;37.94;99400.03;5093804;28;20031;-74
2021/09/12 00:10:12;;;;;;;9.48;4.80;;;;;;;18.20;37.86;99358.09;5093649;28;20032;-76
2021/09/12 00:12:38;;;;;;;8.68;4.60;;;;;;;18.51;37.82;99410.38;5092331;28;20424;-75
2021/09/12 00:15:05;;;;;;;11.32;4.70;;;;;;;18.64;37.84;99434.28;5093225;28;20044;-75
2021/09/12 00:17:31;;;;;;;8.63;4.90;;;;;;;18.84;38.06;99473.22;5093266;28;20024;-75
2021/09/12 00:19:56;;;;;;;8.73;5.00;;;;;;;18.52;37.98;99435.25;5092022;28;20027;-76
2021/09/12 00:22:22;;;;;;;6.95;4.82;;;;;;;18.47;38.38;99435.97;5093400;28;20024;-76
2021/09/12 00:24:47;;;;;;;6.20;4.63;;;;;;;18.41;38.33;99428.88;5093443;28;20062;-80
2021/09/12 00:27:13;;;;;;;6.40;5.03;;;;;;;18.64;38.51;99469.03;5093360;28;20070;-80
2021/09/12 00:29:38;;;;;;;7.32;5.45;;;;;;;18.65;38.36;99472.53;5092071;28;20024;-80
2021/09/12 00:32:04;;;;;;;10.30;4.82;;;;;;;18.05;38.35;99401.28;5091947;28;20019;-80
2021/09/12 00:34:29;;;;;;;12.05;4.72;;;;;;;18.02;38.51;99380.38;5092975;28;20031;-80
2021/09/12 00:36:55;;;;;;;7.93;4.93;;;;;;;18.49;38.52;99452.59;5093122;28;20028;-80
2021/09/12 00:39:20;;;;;;;9.00;4.93;;;;;;;17.69;38.66;99331.97;5093141;28;20031;-80
2021/09/12 00:41:46;;;;;;;8.18;5.10;;;;;;;18.46;38.94;99471.75;5093049;28;20058;-80
2021/09/12 00:44:12;;;;;;;10.05;5.00;;;;;;;18.39;39.06;99471.88;5091675;28;20031;-80
2021/09/12 00:46:43;;;;;;;6.53;5.03;;;;;;;17.68;39.44;99370.41;5093151;28;20034;-80
2021/09/12 00:49:09;;;;;;;9.85;4.57;;;;;;;18.33;39.34;99466.63;5092841;28;20032;-80
2021/09/12 00:51:35;;;;;;;10.68;5.30;;;;;;;18.22;39.43;99457.56;5092860;28;20035;-80
2021/09/12 00:54:04;;;;;;;9.02;5.32;;;;;;;18.31;39.60;99472.22;5092762;28;20051;-80
2021/09/12 00:56:32;;;;;;;8.60;5.10;;;;;;;18.02;39.53;99420.44;5092680;28;20050;-79
2021/09/12 00:59:00;;;;;;;11.05;5.63;;;;;;;18.30;39.48;99453.72;5092696;28;20059;-79
2021/09/12 01:01:26;;;;;;;8.82;4.97;;;;;;;18.08;39.43;99424.88;5091165;28;20500;-80
2021/09/12 01:03:54;;;;;;;9.82;5.28;;;;;;;18.00;39.58;99408.38;5092390;28;20036;-80
2021/09/12 01:06:21;;;;;;;8.40;5.65;;;;;;;18.19;39.60;99433.16;5092669;28;20028;-80
2021/09/12 01:08:46;;;;;;;7.95;4.85;;;;;;;17.78;39.46;99373.34;5092527;28;20028;-81
2021/09/12 01:11:12;;;;;;;7.47;5.03;;;;;;;17.85;39.59;99390.09;5091234;28;20032;-80
2021/09/12 01:13:39;;;;;;;6.50;4.57;;;;;;;18.32;39.59;99465.81;5092249;28;20389;-80
2021/09/12 01:16:16;;;;;;;10.93;5.18;;;;;;;17.95;39.47;99408.25;5090875;28;20028;-81
2021/09/12 01:18:43;;;;;;;10.02;5.28;;;;;;;18.29;39.57;99460.13;5092551;28;20023;-81
2021/09/12 01:21:14;;;;;;;6.88;5.40;;;;;;;18.20;39.85;99458.81;5092381;28;20030;-80
2021/09/12 01:23:40;;;;;;;10.73;4.93;;;;;;;17.62;39.57;99369.44;5092330;28;20020;-74
2021/09/12 01:26:06;;;;;;;11.07;5.68;;;;;;;17.86;39.75;99398.94;5092063;28;20435;-75
2021/09/12 01:28:32;;;;;;;8.30;5.18;;;;;;;18.37;39.56;99470.47;5091905;28;20020;-76
2021/09/12 01:30:57;;;;;;;10.82;5.03;;;;;;;18.36;39.83;99472.34;5092332;28;20550;-75
2021/09/12 01:33:23;;;;;;;6.15;5.03;;;;;;;17.91;39.66;99404.41;5090797;28;20111;-75
2021/09/12 01:35:48;;;;;;;10.80;5.65;;;;;;;17.81;39.89;99362.19;5091900;28;20021;-75
2021/09/12 01:38:14;;;;;;;8.23;5.22;;;;;;;18.40;39.60;99457.47;5091834;28;20020;-76
2021/09/12 01:40:39;;;;;;;6.38;5.30;;;;;;;17.90;39.66;99381.41;5092105;28;20103;-75
2021/09/12 01:43:05;;;;;;;9.18;5.05;;;;;;;18.43;39.72;99457.00;5091956;28;20016;-76
2021/09/12 01:45:30;;;;;;;7.78;4.55;;;;;;;18.18;39.73;99413.63;5091404;28;20029;-76
2021/09/12 01:47:59;;;;;;;11.60;5.38;;;;;;;18.25;39.76;99422.34;5091966;28;20085;-76
2021/09/12 01:50:27;;;;;;;6.53;4.90;;;;;;;18.48;39.71;99456.31;5091887;28;20471;-75
2021/09/12 01:52:52;;;;;;;6.45;5.05;;;;;;;18.42;39.62;99454.56;5091559;28;20020;-75
2021/09/12 01:55:18;;;;;;;7.15;5.07;;;;;;;18.54;39.84;99462.59;5091595;28;20066;-75
2021/09/12 01:57:43;;;;;;;6.28;4.95;;;;;;;18.20;39.79;99408.88;5091509;28;20053;-75
2021/09/12 02:00:09;;;;;;;7.90;4.93;;;;;;;18.23;39.84;99413.75;5091561;28;20468;-74
2021/09/12 02:02:34;;;;;;;9.68;4.97;;;;;;;18.56;39.87;99463.16;5091457;28;20032;-76
2021/09/12 02:05:00;;;;;;;8.80;4.47;;;;;;;18.48;39.72;99448.28;5091467;28;20435;-75
2021/09/12 02:07:26;;;;;;;8.88;4.60;;;;;;;18.36;39.69;99434.91;5091440;28;20042;-76
2021/09/12 02:09:52;;;;;;;7.40;5.05;;;;;;;18.20;39.71;99403.53;5090129;28;20020;-75
2021/09/12 02:12:17;;;;;;;11.02;5.07;;;;;;;18.11;39.48;99394.22;5091333;28;20035;-76
2021/09/12 02:14:42;;;;;;;6.57;5.00;;;;;;;18.19;39.62;99403.75;5091377;28;20081;-76
2021/09/12 02:17:08;;;;;;;7.88;5.18;;;;;;;18.31;39.76;99426.78;5091562;28;20393;-75
2021/09/12 02:19:33;;;;;;;8.10;4.80;;;;;;;18.51;39.77;99447.81;5091502;28;20062;-75
2021/09/12 02:21:59;;;;;;;7.10;4.93;;;;;;;18.55;39.57;99461.53;5090272;28;20024;-75
2021/09/12 02:24:24;;;;;;;8.25;4.70;;;;;;;18.04;39.64;99396.19;5091450;28;20099;-75
2021/09/12 02:26:49;;;;;;;8.07;4.80;;;;;;;18.47;39.67;99446.66;5089921;28;20088;-76
2021/09/12 02:29:15;;;;;;;8.65;4.80;;;;;;;18.31;39.75;99426.78;5091252;28;20039;-74
2021/09/12 02:31:40;;;;;;;6.63;4.55;;;;;;;18.41;39.82;99447.59;5091416;28;20178;-76
2021/09/12 02:34:05;;;;;;;7.65;4.53;;;;;;;18.38;39.82;99451.53;5091249;28;20028;-76
2021/09/12 02:36:31;;;;;;;7.45;4.32;;;;;;;18.35;39.83;99448.50;5091363;28;20074;-75
2021/09/12 02:38:56;;;;;;;6.57;4.22;;;;;;;18.13;40.18;99429.53;5091236;28;20621;-76
2021/09/12 02:41:21;;;;;;;7.05;4.72;;;;;;;17.85;40.05;99389.28;5091018;28;20020;-74
2021/09/12 02:43:47;;;;;;;6.50;4.03;;;;;;;18.17;40.22;99444.06;5091193;28;20020;-75
2021/09/12 02:46:12;;;;;;;6.47;4.35;;;;;;;18.05;40.25;99438.69;5091202;28;20472;-75
2021/09/12 02:48:38;;;;;;;10.80;4.72;;;;;;;17.97;40.02;99419.50;5091186;28;20024;-74
2021/09/12 02:51:04;;;;;;;6.45;4.18;;;;;;;18.18;40.03;99436.88;5091151;28;20064;-76
2021/09/12 02:53:29;;;;;;;8.38;4.72;;;;;;;18.30;39.95;99456.41;5090987;28;20031;-76
2021/09/12 02:55:54;;;;;;;6.20;4.50;;;;;;;17.96;39.99;99407.19;5091170;28;20064;-76
2021/09/12 02:58:20;;;;;;;6.95;4.22;;;;;;;18.15;40.02;99448.81;5094747;28;20028;-75
2021/09/12 03:00:45;;;;;;;7.57;4.30;;;;;;;18.18;40.46;99456.38;5094880;28;20023;-76
2021/09/12 03:03:11;;;;;;;9.13;4.55;;;;;;;18.18;40.38;99459.06;5094880;28;20031;-76
2021/09/12 03:05:36;;;;;;;5.55;4.00;;;;;;;18.16;40.72;99444.28;5094833;28;20020;-76
2021/09/12 03:08:02;;;;;;;8.23;4.38;;;;;;;18.02;40.58;99420.44;5094669;28;20024;-75
2021/09/12 03:10:27;;;;;;;8.50;4.55;;;;;;;18.20;40.41;99448.13;5093641;28;20032;-75
2021/09/12 03:12:52;;;;;;;12.35;4.78;;;;;;;18.11;40.46;99447.66;5094838;28;20028;-75
2021/09/12 03:15:18;;;;;;;6.97;4.57;;;;;;;18.12;40.64;99453.81;5094602;28;20055;-76
2021/09/12 03:17:43;;;;;;;5.28;4.47;;;;;;;17.98;40.78;99432.63;5093454;28;20035;-75
2021/09/12 03:20:09;;;;;;;7.70;4.75;;;;;;;17.88;40.74;99427.03;5093423;28;20472;-76
2021/09/12 03:22:35;;;;;;;7.60;4.32;;;;;;;17.71;40.75;99416.16;5094680;28;20039;-76
2021/09/12 03:25:02;;;;;;;6.75;4.57;;;;;;;17.67;40.70;99387.47;5094668;28;20107;-81
2021/09/12 03:27:28;;;;;;;14.35;4.82;;;;;;;18.10;40.88;99465.53;5094449;28;20028;-81
2021/09/12 03:29:53;;;;;;;6.25;4.32;;;;;;;18.09;40.83;99471.94;5094510;28;20034;-81
2021/09/12 03:32:19;;;;;;;5.57;4.60;;;;;;;17.55;40.93;99382.06;5094512;28;20191;-80
2021/09/12 03:34:44;;;;;;;6.82;4.13;;;;;;;17.64;40.89;99414.59;5094575;28;20105;-81
2021/09/12 03:37:09;;;;;;;7.60;4.53;;;;;;;17.42;40.98;99379.59;5094456;28;20128;-82
2021/09/12 03:39:35;;;;;;;8.90;4.30;;;;;;;17.53;40.83;99391.34;5094292;28;20484;-80
2021/09/12 03:42:00;;;;;;;7.55;4.65;;;;;;;17.38;40.89;99395.22;5094087;28;20024;-80
2021/09/12 03:44:26;;;;;;;6.78;4.88;;;;;;;17.84;41.06;99454.44;5094272;28;20031;-80
2021/09/12 03:46:51;;;;;;;9.00;4.55;;;;;;;17.48;41.00;99400.03;5094193;28;20114;-81
2021/09/12 03:49:17;;;;;;;6.57;4.68;;;;;;;17.08;41.16;99346.34;5094270;28;20423;-80
2021/09/12 03:51:42;;;;;;;6.68;4.47;;;;;;;17.74;41.41;99454.94;5092913;28;20027;-80
2021/09/12 03:54:07;;;;;;;8.30;4.53;;;;;;;17.34;41.45;99398.56;5094008;28;20055;-80
2021/09/12 03:56:33;;;;;;;8.73;4.93;;;;;;;17.79;41.07;99463.91;5093811;28;20016;-81
2021/09/12 03:58:58;;;;;;;8.30;4.45;;;;;;;17.12;41.46;99359.03;5094040;28;20468;-80
2021/09/12 04:01:24;;;;;;;6.65;4.38;;;;;;;17.15;41.44;99369.25;5093655;28;20031;-81
2021/09/12 04:03:49;;;;;;;8.52;4.60;;;;;;;17.36;41.53;99402.66;5092366;28;20028;-80
2021/09/12 04:06:14;;;;;;;6.40;4.72;;;;;;;17.14;41.67;99372.16;5093746;28;20469;-80
2021/09/12 04:08:40;;;;;;;5.80;4.95;;;;;;;17.67;41.91;99468.38;5093605;28;20046;-81
2021/09/12 04:11:05;;;;;;;6.70;4.57;;;;;;;17.43;41.99;99416.72;5092326;28;20027;-81
2021/09/12 04:13:31;;;;;;;8.02;4.68;;;;;;;17.57;41.84;99440.56;5093549;28;20020;-80
2021/09/12 04:15:56;;;;;;;7.22;4.50;;;;;;;17.39;41.49;99415.53;5093338;28;20462;-80
2021/09/12 04:18:21;;;;;;;7.03;4.13;;;;;;;17.37;41.87;99406.94;5093360;28;20024;-81
2021/09/12 04:20:47;;;;;;;6.13;4.57;;;;;;;17.07;41.78;99369.53;5092343;28;20030;-80
2021/09/12 04:23:12;;;;;;;7.95;4.38;;;;;;;17.76;41.71;99466.22;5093447;28;20020;-76
2021/09/12 04:25:38;;;;;;;7.13;4.80;;;;;;;17.26;41.85;99391.69;5093325;28;20047;-76
2021/09/12 04:28:03;;;;;;;6.95;4.53;;;;;;;17.47;41.83;99417.09;5093328;28;20027;-75
2021/09/12 04:30:28;;;;;;;7.97;5.15;;;;;;;17.17;41.63;99365.56;5093283;28;20407;-75
2021/09/12 04:32:54;;;;;;;9.82;4.60;;;;;;;17.68;41.82;99442.50;5093571;28;20085;-74
2021/09/12 04:35:19;;;;;;;7.00;4.45;;;;;;;17.63;42.02;99429.00;5093096;28;20435;-74
2021/09/12 04:37:45;;;;;;;9.10;4.50;;;;;;;17.40;41.82;99398.50;5093178;28;20030;-75
2021/09/12 04:40:10;;;;;;;6.97;4.88;;;;;;;17.79;41.83;99471.91;5092996;28;20092;-76
2021/09/12 04:42:36;;;;;;;12.27;5.10;;;;;;;17.54;41.74;99423.16;5093238;28;20027;-76
2021/09/12 04:45:02;;;;;;;9.63;5.65;;;;;;;17.83;42.06;99464.28;5093053;28;20024;-75
2021/09/12 04:47:28;;;;;;;14.77;9.38;;;;;;;17.68;41.59;99434.50;5092695;28;20028;-76
2021/09/12 04:49:53;;;;;;;15.32;9.77;;;;;;;17.36;41.75;99391.16;5092845;28;20024;-76
2021/09/12 04:52:19;;;;;;;17.08;10.43;;;;;;;17.80;41.63;99472.72;5092702;28;20024;-75
2021/09/12 04:54:44;;;;;;;19.08;11.20;;;;;;;17.55;42.00;99422.09;5092678;28;20036;-74
2021/09/12 04:57:09;;;;;;;16.23;10.40;;;;;;;17.77;41.86;99460.66;5092670;28;20481;-76
2021/09/12 04:59:37;;;;;;;19.40;11.38;;;;;;;17.93;41.70;99469.09;5092826;28;20024;-74
2021/09/12 05:02:04;;;;;;;17.58;11.77;;;;;;;17.99;41.91;99471.66;5091468;28;20420;-75
2021/09/12 05:04:29;;;;;;;18.92;12.32;;;;;;;17.60;41.66;99402.75;5092829;28;20020;-75
2021/09/12 05:06:54;;;;;;;23.40;13.43;;;;;;;17.88;41.89;99444.91;5092426;28;20034;-75
2021/09/12 05:09:23;;;;;;;25.55;13.32;;;;;;;18.09;42.09;99484.47;5092344;28;20032;-74
2021/09/12 05:11:48;;;;;;;20.77;12.70;;;;;;;17.50;41.63;99367.78;5092548;28;20024;-75
2021/09/12 05:14:14;;;;;;;19.10;11.70;;;;;;;18.18;41.91;99459.06;5090812;28;20117;-75
2021/09/12 05:16:39;;;;;;;22.48;11.85;;;;;;;18.05;41.63;99422.66;5092207;28;20521;-75
2021/09/12 05:19:04;;;;;;;21.77;12.70;;;;;;;17.77;41.70;99356.50;5091665;28;20027;-76
2021/09/12 05:21:30;;;;;;;17.88;10.35;;;;;;;18.40;41.17;99444.09;5090645;28;20559;-75
2021/09/12 05:23:55;;;;;;;14.88;9.68;;;;;;;18.59;40.93;99471.56;5092189;28;20024;-76
2021/09/12 05:26:21;;;;;;;13.88;8.73;;;;;;;18.58;40.85;99431.66;5092067;28;20024;-75
2021/09/12 05:28:47;;;;;;;13.10;8.88;;;;;;;18.90;40.37;99454.38;5091967;28;20107;-74
2021/09/12 05:31:12;;;;;;;13.55;7.63;;;;;;;18.54;40.10;99385.03;5090794;28;20089;-75
2021/09/12 05:33:38;;;;;;;12.15;7.85;;;;;;;19.16;39.87;99485.19;5092107;28;20039;-76
2021/09/12 05:36:03;;;;;;;10.13;7.45;;;;;;;19.17;39.46;99467.25;5091839;28;20103;-75
2021/09/12 05:38:29;;;;;;;11.65;7.35;;;;;;;18.86;39.43;99396.22;5091788;28;20560;-76
2021/09/12 05:40:54;;;;;;;11.02;6.82;;;;;;;19.40;39.06;99458.38;5091890;28;20031;-75
2021/09/12 05:43:19;;;;;;;7.60;6.25;;;;;;;19.58;39.03;99475.13;5090656;28;20031;-75
2021/09/12 05:45:45;;;;;;;9.02;6.22;;;;;;;19.45;38.87;99437.88;5090507;28;20030;-75
2021/09/12 05:48:10;;;;;;;9.15;6.30;;;;;;;19.82;38.64;99480.38;5091776;28;20487;-75
2021/09/12 05:50:36;;;;;;;10.23;6.07;;;;;;;19.69;38.52;99446.66;5091726;28;20067;-75
2021/09/12 05:53:09;;;;;;;11.02;5.38;;;;;;;19.97;38.39;99467.25;5091383;28;20123;-76
2021/09/12 05:55:36;;;;;;;6.72;5.38;;;;;;;20.07;38.27;99485.41;5091501;28;20055;-75
2021/09/12 05:58:01;;;;;;;10.07;5.72;;;;;;;19.97;37.96;99449.31;5090127;28;20031;-75
2021/09/12 06:00:27;;;;;;;10.02;5.65;;;;;;;19.87;37.74;99422.34;5091550;28;20020;-74
2021/09/12 06:02:52;;;;;;;6.45;5.15;;;;;;;19.94;37.17;99425.69;5090276;28;20039;-76
2021/09/12 06:05:18;;;;;;;7.53;4.75;;;;;;;20.17;37.28;99448.88;5091596;28;20028;-75
2021/09/12 06:07:43;;;;;;;7.88;5.60;;;;;;;20.29;37.34;99454.97;5091601;28;20032;-76
2021/09/12 06:10:09;;;;;;;6.93;4.82;;;;;;;20.53;37.05;99479.78;5091551;28;20023;-75
2021/09/12 06:12:34;;;;;;;7.78;5.28;;;;;;;20.33;36.69;99427.69;5091269;28;20020;-76
2021/09/12 06:15:00;;;;;;;9.68;5.03;;;;;;;20.74;36.61;99475.56;5091190;28;20131;-75
2021/09/12 06:17:25;;;;;;;5.85;4.35;;;;;;;20.48;36.43;99431.44;5091442;28;20432;-75
2021/09/12 06:19:51;;;;;;;6.35;4.57;;;;;;;20.65;36.20;99442.16;5090109;28;20024;-74
2021/09/12 06:22:16;;;;;;;7.50;4.70;;;;;;;20.98;35.98;99483.44;5091379;28;20039;-74
2021/09/12 06:24:43;;;;;;;5.47;4.13;;;;;;;20.64;36.05;99419.06;5091374;28;20037;-76
2021/09/12 06:27:08;;;;;;;9.10;4.28;;;;;;;20.67;35.67;99409.72;5091365;28;20489;-75
2021/09/12 06:29:34;;;;;;;6.65;4.50;;;;;;;20.74;35.51;99416.53;5091231;28;20102;-76
2021/09/12 06:31:59;;;;;;;5.82;4.15;;;;;;;21.23;35.40;99489.16;5094168;28;20066;-75
2021/09/12 06:34:25;;;;;;;6.43;4.50;;;;;;;21.01;35.22;99448.84;5095275;28;20104;-75
2021/09/12 06:36:50;;;;;;;7.07;4.47;;;;;;;21.36;35.06;99491.50;5095458;28;20436;-76
2021/09/12 06:39:15;;;;;;;7.05;4.68;;;;;;;21.44;35.02;99485.69;5095532;28;20481;-76
2021/09/12 06:41:41;;;;;;;7.88;4.93;;;;;;;21.14;35.01;99424.31;5095173;28;20058;-76
2021/09/12 06:44:06;;;;;;;7.20;4.38;;;;;;;21.53;35.12;99470.75;5095088;28;20044;-75
2021/09/12 06:46:32;;;;;;;8.00;5.03;;;;;;;21.40;34.90;99455.00;5095073;28;20038;-75
2021/09/12 06:48:57;;;;;;;5.35;4.85;;;;;;;21.30;34.65;99436.09;5095011;28;20128;-75
2021/09/12 06:51:23;;;;;;;6.43;4.60;;;;;;;21.70;34.57;99486.00;5094995;28;20020;-75
2021/09/12 06:53:48;;;;;;;5.50;4.40;;;;;;;21.43;34.40;99427.66;5095212;28;20476;-76
2021/09/12 06:56:14;;;;;;;7.45;5.13;;;;;;;21.04;34.68;99362.47;5095062;28;20494;-74
2021/09/12 06:58:39;;;;;;;6.25;4.70;;;;;;;21.93;34.45;99493.78;5095198;28;20027;-76
2021/09/12 07:01:05;;;;;;;7.75;4.75;;;;;;;21.32;34.23;99379.44;5095166;28;20020;-76
2021/09/12 07:03:30;;;;;;;8.13;4.80;;;;;;;21.84;34.26;99453.09;5094768;28;20112;-76
2021/09/12 07:05:56;;;;;;;7.75;4.72;;;;;;;21.91;34.30;99457.47;5094812;28;20016;-75
2021/09/12 07:08:21;;;;;;;6.57;4.30;;;;;;;22.07;34.01;99459.25;5094872;28;20035;-76
2021/09/12 07:10:46;;;;;;;7.80;4.45;;;;;;;22.30;33.93;99493.91;5094669;28;20115;-75
2021/09/12 07:13:12;;;;;;;9.32;5.03;;;;;;;22.25;33.66;99460.75;5094651;28;20032;-76
2021/09/12 07:15:37;;;;;;;5.45;4.32;;;;;;;22.43;33.46;99484.59;5094536;28;20124;-75
2021/09/12 07:18:03;;;;;;;7.30;4.90;;;;;;;22.34;33.24;99460.06;5094769;28;20529;-75
2021/09/12 07:20:29;;;;;;;8.23;4.45;;;;;;;22.53;33.09;99479.31;5094632;28;20020;-75
2021/09/12 07:22:55;;;;;;;6.90;4.47;;;;;;;22.56;33.11;99472.59;5093069;28;20035;-76
2021/09/12 07:25:21;;;;;;;9.80;4.47;;;;;;;22.73;33.15;99482.13;5094378;28;20016;-75
2021/09/12 07:27:46;;;;;;;6.20;4.47;;;;;;;22.80;33.12;99479.25;5094412;28;20031;-76
2021/09/12 07:30:13;;;;;;;6.70;4.03;;;;;;;22.92;32.93;99479.06;5094348;28;20412;-74
2021/09/12 07:32:39;;;;;;;6.35;4.30;;;;;;;22.63;32.85;99419.38;5094445;28;20047;-76
2021/09/12 07:35:05;;;;;;;8.48;4.88;;;;;;;22.79;32.65;99440.72;5094371;28;20481;-75
2021/09/12 07:37:30;;;;;;;6.03;4.22;;;;;;;23.06;32.56;99466.78;5094235;28;20042;-77
2021/09/12 07:39:56;;;;;;;6.15;5.18;;;;;;;23.04;32.35;99461.66;5094270;28;20515;-75
2021/09/12 07:42:21;;;;;;;8.30;4.40;;;;;;;23.06;32.42;99456.81;5093824;28;20028;-75
2021/09/12 07:44:47;;;;;;;6.30;4.45;;;;;;;23.28;31.89;99470.13;5094131;28;20020;-76
2021/09/12 07:47:13;;;;;;;8.57;4.10;;;;;;;23.19;31.92;99454.72;5094266;28;20036;-76
2021/09/12 07:49:38;;;;;;;6.22;4.22;;;;;;;23.48;31.62;99482.06;5092752;28;20099;-75
2021/09/12 07:52:04;;;;;;;6.88;4.40;;;;;;;23.39;31.58;99449.41;5093986;28;20081;-75
2021/09/12 07:54:29;;;;;;;10.13;4.25;;;;;;;23.59;31.44;99473.78;5093779;28;20027;-76
2021/09/12 07:56:55;;;;;;;10.13;4.28;;;;;;;23.32;31.34;99413.81;5093733;28;20055;-77
2021/09/12 07:59:20;;;;;;;7.93;4.50;;;;;;;23.55;31.19;99426.06;5093805;28;20034;-76
2021/09/12 08:01:45;;;;;;;6.72;4.15;;;;;;;23.85;31.08;99463.88;5093744;28;20028;-76
2021/09/12 08:04:11;;;;;;;7.88;3.95;;;;;;;23.94;31.12;99464.16;5093653;28;20028;-76
2021/09/12 08:06:36;;;;;;;9.73;5.15;;;;;;;23.74;30.93;99427.16;5092270;28;20488;-75
2021/09/12 08:09:02;;;;;;;7.55;4.03;;;;;;;23.58;30.61;99385.91;5093748;28;20020;-75
2021/09/12 08:11:27;;;;;;;6.47;4.55;;;;;;;23.83;30.52;99405.91;5092262;28;20481;-75
2021/09/12 08:13:53;;;;;;;8.57;4.63;;;;;;;24.32;30.79;99468.28;5093546;28;20161;-75
2021/09/12 08:16:18;;;;;;;9.13;5.70;;;;;;;24.04;30.52;99408.34;5093467;28;20484;-75
2021/09/12 08:18:43;;;;;;;6.95;4.63;;;;;;;24.33;30.40;99443.72;5093206;28;20053;-75
2021/09/12 08:21:10;;;;;;;10.30;4.95;;;;;;;24.36;30.44;99431.56;5093284;28;20051;-76
2021/09/12 08:23:36;;;;;;;7.70;4.45;;;;;;;24.25;30.24;99397.56;5093319;28;20425;-75
2021/09/12 08:26:01;;;;;;;9.00;5.00;;;;;;;24.58;30.04;99429.41;5093189;28;20046;-74
2021/09/12 08:28:26;;;;;;;10.50;4.90;;;;;;;24.81;29.98;99444.22;5093340;28;20531;-75
2021/09/12 08:30:52;;;;;;;9.20;4.78;;;;;;;24.39;30.15;99368.97;5093219;28;20057;-75
2021/09/12 08:33:17;;;;;;;6.38;4.72;;;;;;;24.77;29.58;99418.03;5093139;28;20028;-76
2021/09/12 08:35:43;;;;;;;8.07;4.82;;;;;;;25.05;29.60;99451.75;5091741;28;20031;-74
2021/09/12 08:38:10;;;;;;;7.57;4.75;;;;;;;24.75;29.12;99399.41;5093103;28;20032;-75
2021/09/12 08:40:36;;;;;;;7.13;5.10;;;;;;;25.09;29.29;99405.00;5093062;28;20466;-75
2021/09/12 08:43:02;;;;;;;7.95;4.93;;;;;;;25.44;28.86;99441.88;5092934;28;20035;-76
2021/09/12 08:45:28;;;;;;;8.80;5.30;;;;;;;24.82;29.11;99318.91;5092991;28;20020;-75
2021/09/12 08:47:54;;;;;;;8.25;5.07;;;;;;;25.73;28.55;99439.31;5093024;28;20028;-75
2021/09/12 08:50:20;;;;;;;6.75;4.82;;;;;;;25.84;28.49;99431.94;5092956;28;20027;-75
2021/09/12 08:52:45;;;;;;;8.32;5.72;;;;;;;25.91;28.32;99425.13;5091440;28;20028;-75
2021/09/12 08:55:11;;;;;;;10.23;6.10;;;;;;;25.96;27.91;99403.44;5091857;28;20027;-75
2021/09/12 08:57:58;;;;;;;8.75;4.93;;;;;;;26.23;27.68;99416.53;5092997;28;20032;-74
2021/09/12 09:00:27;;;;;;;10.52;5.88;;;;;;;26.17;27.65;99387.06;5092868;28;20389;-76
2021/09/12 09:03:04;;;;;;;9.20;5.82;;;;;;;26.48;27.53;99412.00;5091119;28;20518;-76
2021/09/12 09:05:33;;;;;;;9.45;5.50;;;;;;;26.68;27.47;99414.50;5092535;28;20107;-75
2021/09/12 09:08:06;;;;;;;8.73;6.10;;;;;;;26.84;26.38;99410.56;5092452;28;20056;-75
2021/09/12 09:10:45;;;;;;;12.10;6.25;;;;;;;26.90;26.33;99405.88;5092336;28;20051;-75
2021/09/12 09:13:25;;;;;;;14.18;5.85;;;;;;;27.00;26.14;99408.50;5092294;28;20062;-75
2021/09/12 09:15:51;;;;;;;12.70;6.20;;;;;;;26.72;26.73;99338.88;5092310;28;20040;-76
2021/09/12 09:18:17;;;;;;;12.18;6.25;;;;;;;27.29;26.78;99399.47;5090962;28;20144;-75
2021/09/12 09:20:42;;;;;;;10.20;6.22;;;;;;;27.13;26.31;99350.06;5092284;28;20437;-75
2021/09/12 09:23:07;;;;;;;9.02;5.78;;;;;;;27.30;26.36;99349.56;5092322;28;20036;-76
2021/09/12 09:25:34;;;;;;;9.73;5.88;;;;;;;27.76;25.97;99399.38;5092277;28;20046;-75
2021/09/12 09:28:07;;;;;;;12.13;6.57;;;;;;;27.55;25.70;99343.81;5090957;28;20085;-76
2021/09/12 09:30:35;;;;;;;9.20;5.95;;;;;;;28.11;25.78;99391.78;5092098;28;20412;-75
2021/09/12 09:33:27;;;;;;;9.50;5.80;;;;;;;28.17;25.57;99358.00;5090775;28;20412;-75
2021/09/12 09:35:56;;;;;;;7.43;6.35;;;;;;;28.54;24.76;99391.63;5091983;28;20447;-75
2021/09/12 09:38:24;;;;;;;13.20;8.25;;;;;;;28.37;24.67;99343.31;5090383;28;20023;-75
2021/09/12 09:41:01;;;;;;;10.90;7.50;;;;;;;28.68;24.93;99355.22;5091778;28;20028;-75
2021/09/12 09:43:47;;;;;;;10.15;8.20;;;;;;;28.59;24.49;99334.47;5092059;28;20024;-75
2021/09/12 09:46:32;;;;;;;17.80;7.20;;;;;;;28.98;24.51;99370.13;5091949;28;20123;-76
2021/09/12 09:49:00;;;;;;;10.75;8.20;;;;;;;29.15;24.17;99372.25;5092001;28;20067;-75
2021/09/12 09:51:27;;;;;;;8.05;6.38;;;;;;;29.30;24.07;99371.09;5091726;28;20412;-75
2021/09/12 09:53:52;;;;;;;10.23;6.88;;;;;;;29.40;24.07;99373.59;5083398;28;20064;-75
2021/09/12 09:56:17;;;;;;;9.75;6.95;;;;;;;29.30;23.74;99338.47;5071387;28;20544;-76
2021/09/12 09:58:44;;;;;;;11.10;6.38;;;;;;;29.80;23.87;99377.34;5071396;28;20492;-76
2021/09/12 10:01:10;;;;;;;8.68;6.00;;;;;;;29.90;22.98;99368.13;5071361;28;20023;-75
2021/09/12 10:03:37;;;;;;;8.07;7.00;;;;;;;29.63;23.25;99309.16;5071272;28;20103;-75
2021/09/12 10:06:02;;;;;;;9.90;6.90;;;;;;;29.98;23.35;99343.69;5070915;28;20023;-75
2021/09/12 10:08:28;;;;;;;13.23;6.93;;;;;;;30.14;23.12;99346.03;5070180;28;20020;-77
2021/09/12 10:10:54;;;;;;;10.82;6.30;;;;;;;30.31;22.95;99363.28;5071209;28;20058;-75
2021/09/12 10:13:23;;;;;;;8.90;6.75;;;;;;;30.40;22.73;99355.16;5070037;28;20400;-76
2021/09/12 10:15:53;;;;;;;9.02;6.50;;;;;;;30.55;22.49;99352.03;5070994;28;20044;-75
2021/09/12 10:18:24;;;;;;;10.38;6.53;;;;;;;30.51;22.73;99315.63;5069964;28;20444;-77
2021/09/12 10:20:50;;;;;;;11.43;7.68;;;;;;;30.89;22.37;99356.03;5071319;28;20031;-75
2021/09/12 10:23:15;;;;;;;10.57;7.15;;;;;;;30.78;21.93;99319.28;5071170;28;20417;-80
2021/09/12 10:25:50;;;;;;;10.82;8.30;;;;;;;31.15;22.20;99342.47;5071131;28;20529;-80
2021/09/12 10:28:35;;;;;;;10.10;7.93;;;;;;;31.11;21.44;99341.47;5071134;28;20101;-82
2021/09/12 10:31:26;;;;;;;7.25;6.22;;;;;;;31.17;21.33;99349.22;5069922;28;20390;-81
2021/09/12 10:34:12;;;;;;;9.55;5.95;;;;;;;30.98;21.89;99288.69;5071042;28;20413;-81
2021/09/12 10:36:40;;;;;;;10.70;6.80;;;;;;;31.36;21.38;99321.66;5070951;28;20398;-80
2021/09/12 10:39:25;;;;;;;12.55;7.47;;;;;;;31.31;21.49;99332.72;5071119;28;20089;-81
2021/09/12 10:42:09;;;;;;;12.15;7.28;;;;;;;31.12;21.88;99326.72;5071036;28;20028;-81
2021/09/12 10:44:34;;;;;;;9.68;6.32;;;;;;;30.78;22.15;99327.44;5069680;28;20024;-81
2021/09/12 10:47:10;;;;;;;8.82;5.93;;;;;;;30.41;22.53;99331.44;5070929;28;20085;-79
2021/09/12 10:49:36;;;;;;;8.07;6.63;;;;;;;29.53;22.94;99255.81;5070856;28;20481;-81
2021/09/12 10:52:02;;;;;;;8.65;6.10;;;;;;;29.55;23.21;99323.50;5069830;28;20086;-80
2021/09/12 10:54:27;;;;;;;9.45;8.10;;;;;;;28.75;23.54;99246.13;5070992;28;20035;-80
2021/09/12 10:57:07;;;;;;;11.65;7.55;;;;;;;29.42;23.12;99320.50;5070883;28;20024;-81
2021/09/12 10:59:33;;;;;;;10.13;7.03;;;;;;;28.94;23.74;99262.31;5070782;28;20617;-81
2021/09/12 11:01:58;;;;;;;11.70;8.02;;;;;;;28.73;23.37;99249.13;5070655;28;20033;-81
2021/09/12 11:04:30;;;;;;;11.82;7.20;;;;;;;28.53;23.68;99159.13;5069381;28;20055;-79
2021/09/12 11:07:02;;;;;;;9.40;7.00;;;;;;;29.87;22.97;99304.22;5069323;28;20161;-81
2021/09/12 11:09:28;;;;;;;;;;;;;;;30.28;22.16;99300.47;5071096;28;20099;-81
2021/09/12 11:12:05;;;;;;;11.18;8.02;;;;;;;30.56;22.16;99306.53;5070625;28;19915;-80
2021/09/12 11:14:32;;;;;;;11.73;8.15;;;;;;;30.36;22.15;99232.38;5070406;28;20044;-81
2021/09/12 11:17:10;;;;;;;11.20;9.30;;;;;;;31.20;21.72;99299.47;5070684;28;20505;-81
2021/09/12 11:19:36;;;;;;;8.13;6.88;;;;;;;31.22;21.29;99272.72;5072930;28;20398;-80
2021/09/12 11:22:03;;;;;;;11.18;6.75;;;;;;;31.17;20.89;99242.03;5074224;28;20032;-80
2021/09/12 11:24:30;;;;;;;9.60;7.18;;;;;;;31.19;20.82;99247.97;5074186;28;20115;-73
2021/09/12 11:27:04;;;;;;;18.90;9.13;;;;;;;31.66;20.95;99280.84;5074221;28;20017;-76
2021/09/12 11:29:31;;;;;;;11.57;7.82;;;;;;;31.75;20.66;99251.63;5074118;28;20107;-75